sensor_id;sensor_type;location;lat;lon;timestamp;temperature;humidity
17994;DHT22;9122;48.406;9.984;2023-11-19T00:00:10;7.40;99.90
17994;DHT22;9122;48.406;9.984;2023-11-19T00:02:58;7.40;99.90
17994;DHT22;9122;48.406;9.984;2023-11-19T00:05:43;7.40;99.90
17994;DHT22;9122;48.406;9.984;2023-11-19T00:11:13;7.40;99.90
17994;DHT22;9122;48.406;9.984;2023-11-19T00:13:59;7.60;99.90
17994;DHT22;9122;48.406;9.984;2023-11-19T00:16:44;7.40;99.90
17994;DHT22;9122;48.406;9.984;2023-11-19T00:19:28;7.40;99.90
17994;DHT22;9122;48.406;9.984;2023-11-19T00:24:57;7.40;99.90
17994;DHT22;9122;48.406;9.984;2023-11-19T00:27:42;7.50;99.90
17994;DHT22;9122;48.406;9.984;2023-11-19T00:33:15;7.40;99.90
17994;DHT22;9122;48.406;9.984;2023-11-19T00:36:00;7.50;99.90
17994;DHT22;9122;48.406;9.984;2023-11-19T00:38:44;8.30;99.90
17994;DHT22;9122;48.406;9.984;2023-11-19T00:44:13;7.40;99.90
17994;DHT22;9122;48.406;9.984;2023-11-19T00:46:57;7.50;99.90
17994;DHT22;9122;48.406;9.984;2023-11-19T00:49:45;7.60;99.90
17994;DHT22;9122;48.406;9.984;2023-11-19T00:52:31;7.50;99.90
17994;DHT22;9122;48.406;9.984;2023-11-19T00:55:15;8.00;99.90
17994;DHT22;9122;48.406;9.984;2023-11-19T00:57:59;8.50;99.90
17994;DHT22;9122;48.406;9.984;2023-11-19T01:00:44;7.80;99.90
17994;DHT22;9122;48.406;9.984;2023-11-19T01:06:13;7.50;99.90
17994;DHT22;9122;48.406;9.984;2023-11-19T01:08:59;7.50;99.90
17994;DHT22;9122;48.406;9.984;2023-11-19T01:11:44;7.50;99.90
17994;DHT22;9122;48.406;9.984;2023-11-19T01:14:29;8.20;99.90
17994;DHT22;9122;48.406;9.984;2023-11-19T01:17:14;7.60;99.90
17994;DHT22;9122;48.406;9.984;2023-11-19T01:20:00;7.90;99.90
17994;DHT22;9122;48.406;9.984;2023-11-19T01:22:44;8.90;99.90
17994;DHT22;9122;48.406;9.984;2023-11-19T01:25:28;7.50;99.90
17994;DHT22;9122;48.406;9.984;2023-11-19T01:28:13;7.50;99.90
17994;DHT22;9122;48.406;9.984;2023-11-19T01:30:58;7.50;99.90
17994;DHT22;9122;48.406;9.984;2023-11-19T01:33:42;7.50;99.90
17994;DHT22;9122;48.406;9.984;2023-11-19T01:36:27;7.50;99.90
17994;DHT22;9122;48.406;9.984;2023-11-19T01:39:11;7.50;99.90
17994;DHT22;9122;48.406;9.984;2023-11-19T01:41:55;8.20;99.90
17994;DHT22;9122;48.406;9.984;2023-11-19T01:47:26;7.50;99.90
17994;DHT22;9122;48.406;9.984;2023-11-19T01:50:10;7.60;99.90
17994;DHT22;9122;48.406;9.984;2023-11-19T01:52:57;7.60;99.90
17994;DHT22;9122;48.406;9.984;2023-11-19T01:55:42;7.60;99.90
17994;DHT22;9122;48.406;9.984;2023-11-19T01:58:26;7.60;99.90
17994;DHT22;9122;48.406;9.984;2023-11-19T02:01:13;7.60;99.90
17994;DHT22;9122;48.406;9.984;2023-11-19T02:03:58;7.60;99.90
17994;DHT22;9122;48.406;9.984;2023-11-19T02:06:43;7.60;99.90
17994;DHT22;9122;48.406;9.984;2023-11-19T02:09:27;7.60;99.90
17994;DHT22;9122;48.406;9.984;2023-11-19T02:12:13;7.70;99.90
17994;DHT22;9122;48.406;9.984;2023-11-19T02:20:28;7.70;99.90
17994;DHT22;9122;48.406;9.984;2023-11-19T02:23:13;7.60;99.90
17994;DHT22;9122;48.406;9.984;2023-11-19T02:26:33;7.70;99.90
17994;DHT22;9122;48.406;9.984;2023-11-19T02:29:22;7.60;99.90
17994;DHT22;9122;48.406;9.984;2023-11-19T02:32:07;7.70;99.90
17994;DHT22;9122;48.406;9.984;2023-11-19T02:34:53;7.70;99.90
17994;DHT22;9122;48.406;9.984;2023-11-19T02:37:38;7.80;99.90
17994;DHT22;9122;48.406;9.984;2023-11-19T02:40:23;7.70;99.90
17994;DHT22;9122;48.406;9.984;2023-11-19T02:43:11;7.70;99.90
17994;DHT22;9122;48.406;9.984;2023-11-19T02:45:55;7.80;99.90
17994;DHT22;9122;48.406;9.984;2023-11-19T02:51:26;7.70;99.90
17994;DHT22;9122;48.406;9.984;2023-11-19T02:54:11;7.70;99.90
17994;DHT22;9122;48.406;9.984;2023-11-19T02:56:56;7.80;99.90
17994;DHT22;9122;48.406;9.984;2023-11-19T03:02:28;7.80;99.90
17994;DHT22;9122;48.406;9.984;2023-11-19T03:08:04;7.80;99.90
17994;DHT22;9122;48.406;9.984;2023-11-19T03:10:48;7.80;99.90
17994;DHT22;9122;48.406;9.984;2023-11-19T03:13:33;7.80;99.90
17994;DHT22;9122;48.406;9.984;2023-11-19T03:19:03;7.80;99.90
17994;DHT22;9122;48.406;9.984;2023-11-19T03:21:48;7.80;99.90
17994;DHT22;9122;48.406;9.984;2023-11-19T03:24:32;7.90;99.90
17994;DHT22;9122;48.406;9.984;2023-11-19T03:27:16;8.00;99.90
17994;DHT22;9122;48.406;9.984;2023-11-19T03:30:01;7.90;99.90
17994;DHT22;9122;48.406;9.984;2023-11-19T03:32:45;8.10;99.90
17994;DHT22;9122;48.406;9.984;2023-11-19T03:35:30;8.00;99.90
17994;DHT22;9122;48.406;9.984;2023-11-19T03:38:14;7.90;99.90
17994;DHT22;9122;48.406;9.984;2023-11-19T03:40:58;7.90;99.90
17994;DHT22;9122;48.406;9.984;2023-11-19T03:43:43;7.90;99.90
17994;DHT22;9122;48.406;9.984;2023-11-19T03:46:27;7.90;99.90
17994;DHT22;9122;48.406;9.984;2023-11-19T03:49:11;7.90;99.90
17994;DHT22;9122;48.406;9.984;2023-11-19T03:51:56;7.80;99.90
17994;DHT22;9122;48.406;9.984;2023-11-19T03:54:40;8.20;99.90
17994;DHT22;9122;48.406;9.984;2023-11-19T04:00:09;8.00;99.90
17994;DHT22;9122;48.406;9.984;2023-11-19T04:02:54;8.00;99.90
17994;DHT22;9122;48.406;9.984;2023-11-19T04:05:38;8.00;99.90
17994;DHT22;9122;48.406;9.984;2023-11-19T04:08:23;8.10;99.90
17994;DHT22;9122;48.406;9.984;2023-11-19T04:11:07;8.00;99.90
17994;DHT22;9122;48.406;9.984;2023-11-19T04:13:52;8.20;99.90
17994;DHT22;9122;48.406;9.984;2023-11-19T04:16:36;8.10;99.90
17994;DHT22;9122;48.406;9.984;2023-11-19T04:19:20;8.00;99.90
17994;DHT22;9122;48.406;9.984;2023-11-19T04:22:06;8.20;99.90
17994;DHT22;9122;48.406;9.984;2023-11-19T04:24:50;8.10;99.90
17994;DHT22;9122;48.406;9.984;2023-11-19T04:27:34;7.80;99.90
17994;DHT22;9122;48.406;9.984;2023-11-19T04:30:18;8.10;99.90
17994;DHT22;9122;48.406;9.984;2023-11-19T04:33:02;8.10;99.90
17994;DHT22;9122;48.406;9.984;2023-11-19T04:35:47;8.10;99.90
17994;DHT22;9122;48.406;9.984;2023-11-19T04:38:31;8.20;99.90
17994;DHT22;9122;48.406;9.984;2023-11-19T04:41:15;8.20;99.90
17994;DHT22;9122;48.406;9.984;2023-11-19T04:43:59;9.70;99.90
17994;DHT22;9122;48.406;9.984;2023-11-19T04:46:43;8.20;99.90
17994;DHT22;9122;48.406;9.984;2023-11-19T04:52:14;8.20;99.90
17994;DHT22;9122;48.406;9.984;2023-11-19T04:54:59;8.20;99.90
17994;DHT22;9122;48.406;9.984;2023-11-19T04:57:44;8.20;99.90
17994;DHT22;9122;48.406;9.984;2023-11-19T05:00:28;8.20;99.90
17994;DHT22;9122;48.406;9.984;2023-11-19T05:03:12;8.40;99.90
17994;DHT22;9122;48.406;9.984;2023-11-19T05:05:57;8.20;99.90
17994;DHT22;9122;48.406;9.984;2023-11-19T05:08:41;8.30;99.90
17994;DHT22;9122;48.406;9.984;2023-11-19T05:14:12;8.30;99.90
17994;DHT22;9122;48.406;9.984;2023-11-19T05:16:56;8.00;99.90
17994;DHT22;9122;48.406;9.984;2023-11-19T05:19:40;8.30;99.90
17994;DHT22;9122;48.406;9.984;2023-11-19T05:22:24;8.30;99.90
17994;DHT22;9122;48.406;9.984;2023-11-19T05:25:10;8.50;99.90
17994;DHT22;9122;48.406;9.984;2023-11-19T05:30:39;8.30;99.90
17994;DHT22;9122;48.406;9.984;2023-11-19T05:33:23;8.30;99.90
17994;DHT22;9122;48.406;9.984;2023-11-19T05:36:08;8.50;99.90
17994;DHT22;9122;48.406;9.984;2023-11-19T05:38:52;8.30;99.90
17994;DHT22;9122;48.406;9.984;2023-11-19T05:44:21;8.20;99.90
17994;DHT22;9122;48.406;9.984;2023-11-19T05:47:06;8.40;99.90
17994;DHT22;9122;48.406;9.984;2023-11-19T05:49:51;8.40;99.90
17994;DHT22;9122;48.406;9.984;2023-11-19T05:52:35;8.40;99.90
17994;DHT22;9122;48.406;9.984;2023-11-19T05:55:19;8.40;99.90
17994;DHT22;9122;48.406;9.984;2023-11-19T05:58:04;8.40;99.90
17994;DHT22;9122;48.406;9.984;2023-11-19T06:00:51;8.40;99.90
17994;DHT22;9122;48.406;9.984;2023-11-19T06:03:35;8.40;99.90
17994;DHT22;9122;48.406;9.984;2023-11-19T06:06:20;8.50;99.90
17994;DHT22;9122;48.406;9.984;2023-11-19T06:09:04;8.40;99.90
17994;DHT22;9122;48.406;9.984;2023-11-19T06:11:51;8.40;99.90
17994;DHT22;9122;48.406;9.984;2023-11-19T06:14:35;8.40;99.90
17994;DHT22;9122;48.406;9.984;2023-11-19T06:17:20;8.50;99.90
17994;DHT22;9122;48.406;9.984;2023-11-19T06:20:04;8.40;99.90
17994;DHT22;9122;48.406;9.984;2023-11-19T06:22:49;8.50;99.90
17994;DHT22;9122;48.406;9.984;2023-11-19T06:25:34;8.50;99.90
17994;DHT22;9122;48.406;9.984;2023-11-19T06:28:19;8.50;99.90
17994;DHT22;9122;48.406;9.984;2023-11-19T06:31:04;8.50;99.90
17994;DHT22;9122;48.406;9.984;2023-11-19T06:33:48;8.50;99.90
17994;DHT22;9122;48.406;9.984;2023-11-19T06:36:33;8.50;99.90
17994;DHT22;9122;48.406;9.984;2023-11-19T06:39:18;8.50;99.90
17994;DHT22;9122;48.406;9.984;2023-11-19T06:42:02;8.50;99.90
17994;DHT22;9122;48.406;9.984;2023-11-19T06:44:47;8.50;99.90
17994;DHT22;9122;48.406;9.984;2023-11-19T06:47:31;8.50;99.90
17994;DHT22;9122;48.406;9.984;2023-11-19T06:50:16;8.70;99.90
17994;DHT22;9122;48.406;9.984;2023-11-19T06:53:00;8.70;99.90
17994;DHT22;9122;48.406;9.984;2023-11-19T06:55:45;8.50;99.90
17994;DHT22;9122;48.406;9.984;2023-11-19T06:58:29;8.90;99.90
17994;DHT22;9122;48.406;9.984;2023-11-19T07:01:15;9.00;99.90
17994;DHT22;9122;48.406;9.984;2023-11-19T07:03:59;8.70;99.90
17994;DHT22;9122;48.406;9.984;2023-11-19T07:06:45;8.70;99.90
17994;DHT22;9122;48.406;9.984;2023-11-19T07:09:29;9.50;99.90
17994;DHT22;9122;48.406;9.984;2023-11-19T07:12:13;8.70;99.90
17994;DHT22;9122;48.406;9.984;2023-11-19T07:14:58;8.60;99.90
17994;DHT22;9122;48.406;9.984;2023-11-19T07:17:42;8.70;99.90
17994;DHT22;9122;48.406;9.984;2023-11-19T07:20:29;8.70;99.90
17994;DHT22;9122;48.406;9.984;2023-11-19T07:23:13;8.70;99.90
17994;DHT22;9122;48.406;9.984;2023-11-19T07:34:14;8.80;99.90
17994;DHT22;9122;48.406;9.984;2023-11-19T07:36:59;8.80;99.90
17994;DHT22;9122;48.406;9.984;2023-11-19T07:39:46;8.80;99.90
17994;DHT22;9122;48.406;9.984;2023-11-19T07:42:33;8.80;99.90
17994;DHT22;9122;48.406;9.984;2023-11-19T07:56:19;8.90;99.90
17994;DHT22;9122;48.406;9.984;2023-11-19T07:59:04;9.00;99.90
17994;DHT22;9122;48.406;9.984;2023-11-19T08:01:48;9.00;99.90
17994;DHT22;9122;48.406;9.984;2023-11-19T08:04:33;9.00;99.90
17994;DHT22;9122;48.406;9.984;2023-11-19T08:07:18;9.00;99.90
17994;DHT22;9122;48.406;9.984;2023-11-19T08:10:04;9.20;99.90
17994;DHT22;9122;48.406;9.984;2023-11-19T08:12:49;9.10;99.90
17994;DHT22;9122;48.406;9.984;2023-11-19T08:15:34;9.10;99.90
17994;DHT22;9122;48.406;9.984;2023-11-19T08:18:19;9.10;99.90
17994;DHT22;9122;48.406;9.984;2023-11-19T08:21:03;9.10;99.90
17994;DHT22;9122;48.406;9.984;2023-11-19T08:23:49;9.10;99.90
17994;DHT22;9122;48.406;9.984;2023-11-19T08:26:33;9.20;99.90
17994;DHT22;9122;48.406;9.984;2023-11-19T08:29:18;10.10;99.90
17994;DHT22;9122;48.406;9.984;2023-11-19T08:32:03;9.20;99.90
17994;DHT22;9122;48.406;9.984;2023-11-19T08:34:47;9.20;99.90
17994;DHT22;9122;48.406;9.984;2023-11-19T08:37:31;9.20;99.90
17994;DHT22;9122;48.406;9.984;2023-11-19T08:40:15;10.40;99.90
17994;DHT22;9122;48.406;9.984;2023-11-19T08:43:00;9.20;99.90
17994;DHT22;9122;48.406;9.984;2023-11-19T08:45:44;9.20;99.90
17994;DHT22;9122;48.406;9.984;2023-11-19T08:48:29;9.20;99.90
17994;DHT22;9122;48.406;9.984;2023-11-19T08:51:13;9.30;99.90
17994;DHT22;9122;48.406;9.984;2023-11-19T08:56:42;9.30;99.90
17994;DHT22;9122;48.406;9.984;2023-11-19T08:59:26;9.30;99.90
17994;DHT22;9122;48.406;9.984;2023-11-19T09:02:10;9.40;99.90
17994;DHT22;9122;48.406;9.984;2023-11-19T09:04:55;9.40;99.90
17994;DHT22;9122;48.406;9.984;2023-11-19T09:07:40;9.40;99.90
17994;DHT22;9122;48.406;9.984;2023-11-19T09:10:24;9.40;99.90
17994;DHT22;9122;48.406;9.984;2023-11-19T09:13:09;9.50;99.90
17994;DHT22;9122;48.406;9.984;2023-11-19T09:15:53;9.50;99.90
17994;DHT22;9122;48.406;9.984;2023-11-19T09:18:38;9.70;99.90
17994;DHT22;9122;48.406;9.984;2023-11-19T09:21:22;9.70;99.90
17994;DHT22;9122;48.406;9.984;2023-11-19T09:24:07;9.90;99.90
17994;DHT22;9122;48.406;9.984;2023-11-19T09:26:51;9.80;99.90
17994;DHT22;9122;48.406;9.984;2023-11-19T09:29:36;9.80;99.90
17994;DHT22;9122;48.406;9.984;2023-11-19T09:32:21;9.90;99.90
17994;DHT22;9122;48.406;9.984;2023-11-19T09:35:05;9.90;99.90
17994;DHT22;9122;48.406;9.984;2023-11-19T09:37:51;10.00;99.90
17994;DHT22;9122;48.406;9.984;2023-11-19T09:40:35;10.10;99.90
17994;DHT22;9122;48.406;9.984;2023-11-19T09:43:22;10.20;99.90
17994;DHT22;9122;48.406;9.984;2023-11-19T09:46:08;10.30;99.90
17994;DHT22;9122;48.406;9.984;2023-11-19T09:51:41;10.50;99.90
17994;DHT22;9122;48.406;9.984;2023-11-19T09:54:26;10.70;99.90
17994;DHT22;9122;48.406;9.984;2023-11-19T09:57:11;10.50;99.90
17994;DHT22;9122;48.406;9.984;2023-11-19T09:59:57;10.60;99.90
17994;DHT22;9122;48.406;9.984;2023-11-19T10:02:43;10.60;99.90
17994;DHT22;9122;48.406;9.984;2023-11-19T10:08:14;10.70;99.90
17994;DHT22;9122;48.406;9.984;2023-11-19T10:11:00;10.60;99.90
17994;DHT22;9122;48.406;9.984;2023-11-19T10:13:44;10.70;99.90
17994;DHT22;9122;48.406;9.984;2023-11-19T10:16:34;10.60;99.90
17994;DHT22;9122;48.406;9.984;2023-11-19T10:19:19;10.70;99.90
17994;DHT22;9122;48.406;9.984;2023-11-19T10:22:05;10.80;99.90
17994;DHT22;9122;48.406;9.984;2023-11-19T10:27:34;10.90;99.90
17994;DHT22;9122;48.406;9.984;2023-11-19T10:30:30;10.90;99.90
17994;DHT22;9122;48.406;9.984;2023-11-19T10:33:14;11.10;99.90
17994;DHT22;9122;48.406;9.984;2023-11-19T10:36:01;11.10;99.90
17994;DHT22;9122;48.406;9.984;2023-11-19T10:38:53;11.10;99.90
17994;DHT22;9122;48.406;9.984;2023-11-19T10:41:37;11.20;99.90
17994;DHT22;9122;48.406;9.984;2023-11-19T10:44:32;11.40;99.90
17994;DHT22;9122;48.406;9.984;2023-11-19T10:56:06;11.50;99.90
17994;DHT22;9122;48.406;9.984;2023-11-19T10:58:53;11.60;99.90
17994;DHT22;9122;48.406;9.984;2023-11-19T11:04:32;11.90;99.90
17994;DHT22;9122;48.406;9.984;2023-11-19T11:07:21;11.90;99.90
17994;DHT22;9122;48.406;9.984;2023-11-19T11:10:07;12.20;99.90
17994;DHT22;9122;48.406;9.984;2023-11-19T11:12:54;12.00;99.90
17994;DHT22;9122;48.406;9.984;2023-11-19T11:15:42;12.20;99.90
17994;DHT22;9122;48.406;9.984;2023-11-19T11:21:22;12.20;99.90
17994;DHT22;9122;48.406;9.984;2023-11-19T11:28:03;12.20;99.90
17994;DHT22;9122;48.406;9.984;2023-11-19T11:36:21;12.30;99.90
17994;DHT22;9122;48.406;9.984;2023-11-19T11:50:51;12.30;99.90
17994;DHT22;9122;48.406;9.984;2023-11-19T11:53:36;12.30;99.90
17994;DHT22;9122;48.406;9.984;2023-11-19T11:56:21;12.30;99.90
17994;DHT22;9122;48.406;9.984;2023-11-19T11:59:18;12.40;99.90
17994;DHT22;9122;48.406;9.984;2023-11-19T12:02:03;12.40;99.90
17994;DHT22;9122;48.406;9.984;2023-11-19T12:04:52;12.40;99.90
17994;DHT22;9122;48.406;9.984;2023-11-19T12:07:38;12.50;99.90
17994;DHT22;9122;48.406;9.984;2023-11-19T12:10:24;12.40;99.90
17994;DHT22;9122;48.406;9.984;2023-11-19T12:13:09;12.40;99.90
17994;DHT22;9122;48.406;9.984;2023-11-19T12:21:30;12.40;99.90
17994;DHT22;9122;48.406;9.984;2023-11-19T12:24:15;12.40;99.90
17994;DHT22;9122;48.406;9.984;2023-11-19T12:27:00;12.50;99.90
17994;DHT22;9122;48.406;9.984;2023-11-19T12:29:44;12.50;99.90
17994;DHT22;9122;48.406;9.984;2023-11-19T12:32:40;12.60;99.90
17994;DHT22;9122;48.406;9.984;2023-11-19T12:35:25;12.60;99.90
17994;DHT22;9122;48.406;9.984;2023-11-19T12:38:24;12.70;99.90
17994;DHT22;9122;48.406;9.984;2023-11-19T12:41:09;12.80;99.90
17994;DHT22;9122;48.406;9.984;2023-11-19T12:44:11;12.80;99.90
17994;DHT22;9122;48.406;9.984;2023-11-19T12:47:01;12.80;99.90
17994;DHT22;9122;48.406;9.984;2023-11-19T12:49:58;12.90;99.90
17994;DHT22;9122;48.406;9.984;2023-11-19T12:52:42;12.90;99.90
17994;DHT22;9122;48.406;9.984;2023-11-19T12:55:28;12.90;99.90
17994;DHT22;9122;48.406;9.984;2023-11-19T12:58:32;13.00;99.90
17994;DHT22;9122;48.406;9.984;2023-11-19T13:01:18;12.90;99.90
17994;DHT22;9122;48.406;9.984;2023-11-19T13:04:17;12.90;99.90
17994;DHT22;9122;48.406;9.984;2023-11-19T13:07:02;12.90;99.90
17994;DHT22;9122;48.406;9.984;2023-11-19T13:09:49;12.90;99.90
17994;DHT22;9122;48.406;9.984;2023-11-19T13:12:33;12.90;99.90
17994;DHT22;9122;48.406;9.984;2023-11-19T13:15:24;12.90;99.90
17994;DHT22;9122;48.406;9.984;2023-11-19T13:18:09;13.00;99.90
17994;DHT22;9122;48.406;9.984;2023-11-19T13:20:54;13.00;99.90
17994;DHT22;9122;48.406;9.984;2023-11-19T13:23:41;13.10;99.90
17994;DHT22;9122;48.406;9.984;2023-11-19T13:26:26;13.10;99.90
17994;DHT22;9122;48.406;9.984;2023-11-19T13:29:11;13.10;99.90
17994;DHT22;9122;48.406;9.984;2023-11-19T13:31:55;13.10;99.90
17994;DHT22;9122;48.406;9.984;2023-11-19T13:34:40;13.20;99.90
17994;DHT22;9122;48.406;9.984;2023-11-19T13:37:25;13.20;99.90
17994;DHT22;9122;48.406;9.984;2023-11-19T13:40:10;13.20;99.90
17994;DHT22;9122;48.406;9.984;2023-11-19T13:45:41;13.30;99.90
17994;DHT22;9122;48.406;9.984;2023-11-19T13:48:26;13.40;99.90
17994;DHT22;9122;48.406;9.984;2023-11-19T13:51:13;13.40;99.90
17994;DHT22;9122;48.406;9.984;2023-11-19T13:53:57;13.50;99.90
17994;DHT22;9122;48.406;9.984;2023-11-19T13:56:42;13.60;99.90
17994;DHT22;9122;48.406;9.984;2023-11-19T13:59:28;13.70;99.90
17994;DHT22;9122;48.406;9.984;2023-11-19T14:04:58;13.70;99.90
17994;DHT22;9122;48.406;9.984;2023-11-19T14:07:43;13.70;99.90
17994;DHT22;9122;48.406;9.984;2023-11-19T14:10:27;13.70;99.90
17994;DHT22;9122;48.406;9.984;2023-11-19T14:13:13;13.80;99.90
17994;DHT22;9122;48.406;9.984;2023-11-19T14:15:59;13.70;99.90
17994;DHT22;9122;48.406;9.984;2023-11-19T14:21:30;13.80;99.90
17994;DHT22;9122;48.406;9.984;2023-11-19T14:24:14;13.80;99.90
17994;DHT22;9122;48.406;9.984;2023-11-19T14:26:58;13.80;99.90
17994;DHT22;9122;48.406;9.984;2023-11-19T14:29:43;13.80;99.90
17994;DHT22;9122;48.406;9.984;2023-11-19T14:32:29;13.80;99.90
17994;DHT22;9122;48.406;9.984;2023-11-19T14:35:13;13.80;99.90
17994;DHT22;9122;48.406;9.984;2023-11-19T14:37:57;13.80;99.90
17994;DHT22;9122;48.406;9.984;2023-11-19T14:43:27;13.70;99.90
17994;DHT22;9122;48.406;9.984;2023-11-19T14:46:11;13.70;99.90
17994;DHT22;9122;48.406;9.984;2023-11-19T14:54:24;13.70;99.90
17994;DHT22;9122;48.406;9.984;2023-11-19T14:57:09;13.70;99.90
17994;DHT22;9122;48.406;9.984;2023-11-19T14:59:54;13.60;99.90
17994;DHT22;9122;48.406;9.984;2023-11-19T15:02:42;13.60;99.90
17994;DHT22;9122;48.406;9.984;2023-11-19T15:05:26;13.60;99.90
17994;DHT22;9122;48.406;9.984;2023-11-19T15:08:12;13.60;99.90
17994;DHT22;9122;48.406;9.984;2023-11-19T15:13:44;13.60;99.90
17994;DHT22;9122;48.406;9.984;2023-11-19T15:16:28;13.50;99.90
17994;DHT22;9122;48.406;9.984;2023-11-19T15:19:17;13.50;99.90
17994;DHT22;9122;48.406;9.984;2023-11-19T15:22:04;13.50;99.90
17994;DHT22;9122;48.406;9.984;2023-11-19T15:24:49;13.60;99.90
17994;DHT22;9122;48.406;9.984;2023-11-19T15:27:33;13.50;99.90
17994;DHT22;9122;48.406;9.984;2023-11-19T15:33:02;13.40;99.90
17994;DHT22;9122;48.406;9.984;2023-11-19T15:35:47;13.40;99.90
17994;DHT22;9122;48.406;9.984;2023-11-19T15:38:32;13.40;99.90
17994;DHT22;9122;48.406;9.984;2023-11-19T15:41:16;13.40;99.90
17994;DHT22;9122;48.406;9.984;2023-11-19T15:44:00;13.40;99.90
17994;DHT22;9122;48.406;9.984;2023-11-19T15:46:47;13.40;99.90
17994;DHT22;9122;48.406;9.984;2023-11-19T15:49:32;13.30;99.90
17994;DHT22;9122;48.406;9.984;2023-11-19T15:52:44;13.40;99.90
17994;DHT22;9122;48.406;9.984;2023-11-19T15:55:29;13.30;99.90
17994;DHT22;9122;48.406;9.984;2023-11-19T15:58:13;13.30;99.90
17994;DHT22;9122;48.406;9.984;2023-11-19T16:03:42;13.20;99.90
17994;DHT22;9122;48.406;9.984;2023-11-19T16:06:26;13.20;99.90
17994;DHT22;9122;48.406;9.984;2023-11-19T16:09:11;13.20;99.90
17994;DHT22;9122;48.406;9.984;2023-11-19T16:11:59;13.20;99.90
17994;DHT22;9122;48.406;9.984;2023-11-19T16:14:43;13.20;99.90
17994;DHT22;9122;48.406;9.984;2023-11-19T16:17:28;13.20;99.90
17994;DHT22;9122;48.406;9.984;2023-11-19T16:20:13;13.20;99.90
17994;DHT22;9122;48.406;9.984;2023-11-19T16:22:58;13.10;99.90
17994;DHT22;9122;48.406;9.984;2023-11-19T16:28:29;13.10;99.90
17994;DHT22;9122;48.406;9.984;2023-11-19T16:31:14;13.10;99.90
17994;DHT22;9122;48.406;9.984;2023-11-19T16:33:58;13.10;99.90
17994;DHT22;9122;48.406;9.984;2023-11-19T16:39:29;13.00;99.90
17994;DHT22;9122;48.406;9.984;2023-11-19T16:42:14;13.00;99.90
17994;DHT22;9122;48.406;9.984;2023-11-19T16:45:01;13.00;99.90
17994;DHT22;9122;48.406;9.984;2023-11-19T16:47:48;13.00;99.90
17994;DHT22;9122;48.406;9.984;2023-11-19T16:53:17;12.90;99.90
17994;DHT22;9122;48.406;9.984;2023-11-19T16:56:02;12.90;99.90
17994;DHT22;9122;48.406;9.984;2023-11-19T16:58:50;12.90;99.90
17994;DHT22;9122;48.406;9.984;2023-11-19T17:01:35;12.90;99.90
17994;DHT22;9122;48.406;9.984;2023-11-19T17:04:20;12.90;99.90
17994;DHT22;9122;48.406;9.984;2023-11-19T17:07:05;12.80;99.90
17994;DHT22;9122;48.406;9.984;2023-11-19T17:12:33;12.80;99.90
17994;DHT22;9122;48.406;9.984;2023-11-19T17:15:18;12.80;99.90
17994;DHT22;9122;48.406;9.984;2023-11-19T17:18:03;12.80;99.90
17994;DHT22;9122;48.406;9.984;2023-11-19T17:20:52;12.80;99.90
17994;DHT22;9122;48.406;9.984;2023-11-19T17:23:39;12.80;99.90
17994;DHT22;9122;48.406;9.984;2023-11-19T17:29:09;12.70;99.90
17994;DHT22;9122;48.406;9.984;2023-11-19T17:31:54;12.70;99.90
17994;DHT22;9122;48.406;9.984;2023-11-19T17:37:23;12.70;99.90
17994;DHT22;9122;48.406;9.984;2023-11-19T17:40:08;12.70;99.90
17994;DHT22;9122;48.406;9.984;2023-11-19T17:42:55;12.70;99.90
17994;DHT22;9122;48.406;9.984;2023-11-19T17:45:39;12.70;99.90
17994;DHT22;9122;48.406;9.984;2023-11-19T17:48:24;12.60;99.90
17994;DHT22;9122;48.406;9.984;2023-11-19T17:53:53;12.60;99.90
17994;DHT22;9122;48.406;9.984;2023-11-19T17:56:39;12.70;99.90
17994;DHT22;9122;48.406;9.984;2023-11-19T17:59:23;12.60;99.90
17994;DHT22;9122;48.406;9.984;2023-11-19T18:04:52;12.50;99.90
17994;DHT22;9122;48.406;9.984;2023-11-19T18:07:39;12.60;99.90
17994;DHT22;9122;48.406;9.984;2023-11-19T18:10:24;12.50;99.90
17994;DHT22;9122;48.406;9.984;2023-11-19T18:13:08;12.50;99.90
17994;DHT22;9122;48.406;9.984;2023-11-19T18:15:53;12.50;99.90
17994;DHT22;9122;48.406;9.984;2023-11-19T18:21:22;12.50;99.90
17994;DHT22;9122;48.406;9.984;2023-11-19T18:24:07;12.40;99.90
17994;DHT22;9122;48.406;9.984;2023-11-19T18:26:52;12.40;99.90
17994;DHT22;9122;48.406;9.984;2023-11-19T18:29:37;12.40;99.90
17994;DHT22;9122;48.406;9.984;2023-11-19T18:32:21;12.40;99.90
17994;DHT22;9122;48.406;9.984;2023-11-19T18:35:06;12.40;99.90
17994;DHT22;9122;48.406;9.984;2023-11-19T18:40:39;12.30;99.90
17994;DHT22;9122;48.406;9.984;2023-11-19T18:43:24;12.40;99.90
17994;DHT22;9122;48.406;9.984;2023-11-19T18:48:55;12.30;99.90
17994;DHT22;9122;48.406;9.984;2023-11-19T18:51:42;12.20;99.90
17994;DHT22;9122;48.406;9.984;2023-11-19T18:54:26;12.20;99.90
17994;DHT22;9122;48.406;9.984;2023-11-19T18:57:11;12.20;99.90
17994;DHT22;9122;48.406;9.984;2023-11-19T18:59:55;12.20;99.90
17994;DHT22;9122;48.406;9.984;2023-11-19T19:02:40;12.20;99.90
17994;DHT22;9122;48.406;9.984;2023-11-19T19:08:10;12.10;99.90
17994;DHT22;9122;48.406;9.984;2023-11-19T19:13:39;12.00;99.90
17994;DHT22;9122;48.406;9.984;2023-11-19T19:16:23;12.00;99.90
17994;DHT22;9122;48.406;9.984;2023-11-19T19:21:53;12.00;99.90
17994;DHT22;9122;48.406;9.984;2023-11-19T19:24:37;12.00;99.90
17994;DHT22;9122;48.406;9.984;2023-11-19T19:27:22;12.00;99.90
17994;DHT22;9122;48.406;9.984;2023-11-19T19:30:07;11.90;99.90
17994;DHT22;9122;48.406;9.984;2023-11-19T19:32:52;11.90;99.90
17994;DHT22;9122;48.406;9.984;2023-11-19T19:35:37;12.00;99.90
17994;DHT22;9122;48.406;9.984;2023-11-19T19:38:21;11.90;99.90
17994;DHT22;9122;48.406;9.984;2023-11-19T19:41:06;11.90;99.90
17994;DHT22;9122;48.406;9.984;2023-11-19T19:46:36;11.90;99.90
17994;DHT22;9122;48.406;9.984;2023-11-19T19:49:31;11.80;99.90
17994;DHT22;9122;48.406;9.984;2023-11-19T19:52:17;12.40;99.90
17994;DHT22;9122;48.406;9.984;2023-11-19T19:55:01;11.70;99.90
17994;DHT22;9122;48.406;9.984;2023-11-19T19:57:47;11.70;99.90
17994;DHT22;9122;48.406;9.984;2023-11-19T20:03:20;11.60;99.90
17994;DHT22;9122;48.406;9.984;2023-11-19T20:06:05;11.50;99.90
17994;DHT22;9122;48.406;9.984;2023-11-19T20:11:40;11.70;99.90
17994;DHT22;9122;48.406;9.984;2023-11-19T20:14:28;11.50;99.90
17994;DHT22;9122;48.406;9.984;2023-11-19T20:17:13;11.70;99.90
17994;DHT22;9122;48.406;9.984;2023-11-19T20:19:58;11.50;99.90
17994;DHT22;9122;48.406;9.984;2023-11-19T20:25:28;11.60;99.90
17994;DHT22;9122;48.406;9.984;2023-11-19T20:28:15;11.50;99.90
17994;DHT22;9122;48.406;9.984;2023-11-19T20:31:00;11.40;99.90
17994;DHT22;9122;48.406;9.984;2023-11-19T20:33:45;11.40;99.90
17994;DHT22;9122;48.406;9.984;2023-11-19T20:36:31;11.40;99.90
17994;DHT22;9122;48.406;9.984;2023-11-19T20:39:15;11.40;99.90
17994;DHT22;9122;48.406;9.984;2023-11-19T20:42:00;11.40;99.90
17994;DHT22;9122;48.406;9.984;2023-11-19T20:44:45;11.40;99.90
17994;DHT22;9122;48.406;9.984;2023-11-19T20:47:29;11.40;99.90
17994;DHT22;9122;48.406;9.984;2023-11-19T20:50:14;11.40;99.90
17994;DHT22;9122;48.406;9.984;2023-11-19T20:52:59;10.70;99.90
17994;DHT22;9122;48.406;9.984;2023-11-19T20:58:29;11.40;99.90
17994;DHT22;9122;48.406;9.984;2023-11-19T21:01:14;12.40;99.90
17994;DHT22;9122;48.406;9.984;2023-11-19T21:03:58;11.30;99.90